Terminal Aerodrome Forecast
Issued by NWS Twin Cities, MN

Home | Current Version | Previous Version | Graphics & Text | Print | Product List | Glossary On
Versions: 1 2 3 4 5 6 7 8 9 10 11 12 13 14 15 16 17 18 19 20 21 22 23 24 25 26
000
FTUS43 KMPX 271500 AAB
TAFMSP
TAF AMD
KMSP 271501Z 2715/2818 30015G25KT P6SM BKN030 BKN050
     FM271700 32017G27KT P6SM VCSH SCT020 BKN035
      TEMPO 2718/2721 -SHRA BKN025 OVC040
     FM272200 33014G20KT P6SM VCSH SCT025 BKN040
     FM280200 35004KT P6SM SCT050=

USA.gov is the U.S. government's official web portal to all federal, state and local government web resources and services.